Fortunate — 3FLG6 — position and weather

sailwx.info

Track history (hours):
 
Tides and Currents Weather Stations Pressure Air Temp Water Temp Dewpoint Dewpoint Depression Visibility Wind Speed Wind Dir Waves Ship Positions

Fortunate

Last reported at 2017-Jan-17 22:33 UTC. Time now 2017-Jan-17 23:30 UTC.
Position N 51°57' E 001°18'.

Length 275 m; draft 11.8 m.

Type: Ship (hazmat cat A). MMSI: 356708000.

Date/timePositionNaut miles runAvg speedWind from/ knotsBaromVisibWave heightAir tempDewpointWater temp
2017-Jan-17 22:33N 51°57' E 001°18'1010.2
2017-Jan-17 21:33N 51°54' E 001°34'9 8.7
2017-Jan-17 20:33N 51°51' E 001°47'1919.0
2017-Jan-17 19:33N 51°33' E 001°55'1717.0
2017-Jan-17 18:33N 51°16' E 001°52'2120.8
2017-Jan-17 17:33N 50°59' E 001°31'2120.2
2017-Jan-17 16:32N 50°41' E 001°17'4219.2
2017-Jan-17 14:21N 50°22' E 000°18'1620.1
2017-Jan-17 13:33N 50°17' W 000°07'2221.1
2017-Jan-17 12:30N 50°11' W 000°40'2122.0
2017-Jan-17 11:33N 50°05' W 001°11'2322.7
2017-Jan-17 10:34N 49°59' W 001°45'4421.5
2017-Jan-17 08:32N 49°48' W 002°50'2020.1
2017-Jan-17 07:32N 49°39' W 003°17'6619.6
2017-Jan-17 04:09N 49°06' W 004°46'1118.9
2017-Jan-17 03:33N 49°01' W 005°01'1818.3
2017-Jan-17 02:33N 48°52' W 005°25'60017.7
2017-Jan-15 16:33N 39°23' W 009°52'1818.2
2017-Jan-15 15:33N 39°04' W 009°52'1818.3
2017-Jan-15 14:33N 38°46' W 009°52'1918.5
2017-Jan-15 13:33N 38°28' W 009°47'1818.4
2017-Jan-15 12:33N 38°10' W 009°42'1918.7
2017-Jan-15 11:33N 37°52' W 009°37'2418.7
2017-Jan-15 10:16N 37°28' W 009°30'33817.1
2017-Jan-14 14:33N 36°22' W 002°36'2518.3
2017-Jan-14 13:11N 36°29' W 002°06'2119.8
2017-Jan-14 12:07N 36°43' W 001°46'3219.4
2017-Jan-14 10:27N 37°04' W 001°15'1819.6
2017-Jan-14 09:33N 37°16' W 000°59'2019.6
2017-Jan-14 08:33N 37°29' W 000°40'1919.4
2017-Jan-14 07:33N 37°44' W 000°25'2019.7
2017-Jan-14 06:33N 38°00' W 000°11'8612.1
2017-Jan-13 23:23N 39°26' W 000°20'0 0.0
2017-Jan-13 22:29N 39°26' W 000°20'0 0.0
2017-Jan-13 21:32N 39°26' W 000°20'0 0.0
2017-Jan-13 20:29N 39°26' W 000°20'0 0.0
2017-Jan-13 19:23N 39°26' W 000°20'0 0.0
2017-Jan-13 17:11N 39°26' W 000°20'0 0.0
2017-Jan-13 16:17N 39°26' W 000°20'0 0.0
2017-Jan-13 15:32N 39°26' W 000°20'0 0.0
2017-Jan-13 14:17N 39°26' W 000°20'0 0.0
2017-Jan-13 13:29N 39°26' W 000°20'0 0.0
2017-Jan-13 12:11N 39°26' W 000°20'0 0.0
2017-Jan-13 11:29N 39°26' W 000°20'0 0.0
2017-Jan-13 10:32N 39°26' W 000°20'0 0.0
2017-Jan-13 09:32N 39°26' W 000°20'0 0.0
2017-Jan-13 08:32N 39°26' W 000°20'0 0.0
2017-Jan-13 07:32N 39°26' W 000°20'0 0.0
2017-Jan-13 06:32N 39°26' W 000°20'0 0.0
2017-Jan-13 05:33N 39°26' W 000°20'4 3.7
2017-Jan-13 04:33N 39°26' W 000°15'7017.5
2017-Jan-13 00:33N 39°56' E 001°07'1918.7
2017-Jan-12 23:33N 40°06' E 001°28'1818.1
2017-Jan-12 22:33N 40°16' E 001°48'1717.1
2017-Jan-12 21:33N 40°25' E 002°07'1818.0
2017-Jan-12 20:33N 40°34' E 002°27'1817.8
2017-Jan-12 19:33N 40°44' E 002°47'1817.7
2017-Jan-12 18:33N 40°53' E 003°06'1717.4
2017-Jan-12 17:33N 41°02' E 003°26'2417.4
2017-Jan-12 16:10N 41°15' E 003°54'19518.2
2017-Jan-12 05:29N 42°58' E 007°37'5318.1
2017-Jan-12 02:33N 43°26' E 008°38'1818.2
2017-Jan-12 01:33N 43°36' E 008°59'1817.7
2017-Jan-12 00:33N 43°45' E 009°20'1717.5
2017-Jan-11 23:33N 43°55' E 009°41'1212.3
2017-Jan-11 22:33N 44°04' E 009°51'2 2.0
2017-Jan-11 21:32N 44°06' E 009°51'0 0.0
2017-Jan-11 20:32N 44°06' E 009°51'0 0.0
2017-Jan-11 19:32N 44°06' E 009°51'0 0.0
2017-Jan-11 18:29N 44°06' E 009°51'0 0.0
2017-Jan-11 17:32N 44°06' E 009°51'0 0.0
2017-Jan-11 16:32N 44°06' E 009°51'0 0.0
2017-Jan-11 15:32N 44°06' E 009°51'0 0.0
2017-Jan-11 14:32N 44°06' E 009°51'0 0.0
2017-Jan-11 13:32N 44°06' E 009°51'0 0.0
2017-Jan-11 12:32N 44°06' E 009°51'0 0.0
2017-Jan-11 11:33N 44°06' E 009°51'5 5.3
2017-Jan-11 10:33N 44°02' E 009°55'1514.6
2017-Jan-11 09:34N 43°47' E 009°51'1818.2
2017-Jan-11 08:34N 43°30' E 009°45'1918.8
2017-Jan-11 07:34N 43°11' E 009°41'  
2017-Jan-09 02:11N 39°01' E 015°13'1116.8
2017-Jan-09 01:32N 38°51' E 015°19'1716.8
2017-Jan-09 00:32N 38°36' E 015°30'1717.0
2017-Jan-08 23:33N 38°22' E 015°40'1313.4
2017-Jan-08 22:34N 38°09' E 015°36'1716.9
2017-Jan-08 21:33N 37°53' E 015°43'  
Track history (hours):
 
Tides and Currents Weather Stations Pressure Air Temp Water Temp Dewpoint Dewpoint Depression Visibility Wind Speed Wind Dir Waves Ship Positions

Fortunate

Last reported at 2017-Jan-17 22:33 UTC. Time now 2017-Jan-17 23:30 UTC.
Position N 51°57' E 001°18'.

Length 275 m; draft 11.8 m.

Type: Ship (hazmat cat A). MMSI: 356708000.

Date/timePositionNaut miles runAvg speedWind from/ knotsBaromVisibWave heightAir tempDewpointWater temp
2017-Jan-17 22:33N 51°57' E 001°18'1010.2
2017-Jan-17 21:33N 51°54' E 001°34'9 8.7
2017-Jan-17 20:33N 51°51' E 001°47'1919.0
2017-Jan-17 19:33N 51°33' E 001°55'1717.0
2017-Jan-17 18:33N 51°16' E 001°52'2120.8
2017-Jan-17 17:33N 50°59' E 001°31'2120.2
2017-Jan-17 16:32N 50°41' E 001°17'4219.2
2017-Jan-17 14:21N 50°22' E 000°18'1620.1
2017-Jan-17 13:33N 50°17' W 000°07'2221.1
2017-Jan-17 12:30N 50°11' W 000°40'2122.0
2017-Jan-17 11:33N 50°05' W 001°11'2322.7
2017-Jan-17 10:34N 49°59' W 001°45'4421.5
2017-Jan-17 08:32N 49°48' W 002°50'2020.1
2017-Jan-17 07:32N 49°39' W 003°17'6619.6
2017-Jan-17 04:09N 49°06' W 004°46'1118.9
2017-Jan-17 03:33N 49°01' W 005°01'1818.3
2017-Jan-17 02:33N 48°52' W 005°25'60017.7
2017-Jan-15 16:33N 39°23' W 009°52'1818.2
2017-Jan-15 15:33N 39°04' W 009°52'1818.3
2017-Jan-15 14:33N 38°46' W 009°52'1918.5
2017-Jan-15 13:33N 38°28' W 009°47'1818.4
2017-Jan-15 12:33N 38°10' W 009°42'1918.7
2017-Jan-15 11:33N 37°52' W 009°37'2418.7
2017-Jan-15 10:16N 37°28' W 009°30'33817.1
2017-Jan-14 14:33N 36°22' W 002°36'2518.3
2017-Jan-14 13:11N 36°29' W 002°06'2119.8
2017-Jan-14 12:07N 36°43' W 001°46'3219.4
2017-Jan-14 10:27N 37°04' W 001°15'1819.6
2017-Jan-14 09:33N 37°16' W 000°59'2019.6
2017-Jan-14 08:33N 37°29' W 000°40'1919.4
2017-Jan-14 07:33N 37°44' W 000°25'2019.7
2017-Jan-14 06:33N 38°00' W 000°11'8612.1
2017-Jan-13 23:23N 39°26' W 000°20'0 0.0
2017-Jan-13 22:29N 39°26' W 000°20'0 0.0
2017-Jan-13 21:32N 39°26' W 000°20'0 0.0
2017-Jan-13 20:29N 39°26' W 000°20'0 0.0
2017-Jan-13 19:23N 39°26' W 000°20'0 0.0
2017-Jan-13 17:11N 39°26' W 000°20'0 0.0
2017-Jan-13 16:17N 39°26' W 000°20'0 0.0
2017-Jan-13 15:32N 39°26' W 000°20'0 0.0
2017-Jan-13 14:17N 39°26' W 000°20'0 0.0
2017-Jan-13 13:29N 39°26' W 000°20'0 0.0
2017-Jan-13 12:11N 39°26' W 000°20'0 0.0
2017-Jan-13 11:29N 39°26' W 000°20'0 0.0
2017-Jan-13 10:32N 39°26' W 000°20'0 0.0
2017-Jan-13 09:32N 39°26' W 000°20'0 0.0
2017-Jan-13 08:32N 39°26' W 000°20'0 0.0
2017-Jan-13 07:32N 39°26' W 000°20'0 0.0
2017-Jan-13 06:32N 39°26' W 000°20'0 0.0
2017-Jan-13 05:33N 39°26' W 000°20'4 3.7
2017-Jan-13 04:33N 39°26' W 000°15'7017.5
2017-Jan-13 00:33N 39°56' E 001°07'1918.7
2017-Jan-12 23:33N 40°06' E 001°28'1818.1
2017-Jan-12 22:33N 40°16' E 001°48'1717.1
2017-Jan-12 21:33N 40°25' E 002°07'1818.0
2017-Jan-12 20:33N 40°34' E 002°27'1817.8
2017-Jan-12 19:33N 40°44' E 002°47'1817.7
2017-Jan-12 18:33N 40°53' E 003°06'1717.4
2017-Jan-12 17:33N 41°02' E 003°26'2417.4
2017-Jan-12 16:10N 41°15' E 003°54'19518.2
2017-Jan-12 05:29N 42°58' E 007°37'5318.1
2017-Jan-12 02:33N 43°26' E 008°38'1818.2
2017-Jan-12 01:33N 43°36' E 008°59'1817.7
2017-Jan-12 00:33N 43°45' E 009°20'1717.5
2017-Jan-11 23:33N 43°55' E 009°41'1212.3
2017-Jan-11 22:33N 44°04' E 009°51'2 2.0
2017-Jan-11 21:32N 44°06' E 009°51'0 0.0
2017-Jan-11 20:32N 44°06' E 009°51'0 0.0
2017-Jan-11 19:32N 44°06' E 009°51'0 0.0
2017-Jan-11 18:29N 44°06' E 009°51'0 0.0
2017-Jan-11 17:32N 44°06' E 009°51'0 0.0
2017-Jan-11 16:32N 44°06' E 009°51'0 0.0
2017-Jan-11 15:32N 44°06' E 009°51'0 0.0
2017-Jan-11 14:32N 44°06' E 009°51'0 0.0
2017-Jan-11 13:32N 44°06' E 009°51'0 0.0
2017-Jan-11 12:32N 44°06' E 009°51'0 0.0
2017-Jan-11 11:33N 44°06' E 009°51'5 5.3
2017-Jan-11 10:33N 44°02' E 009°55'1514.6
2017-Jan-11 09:34N 43°47' E 009°51'1818.2
2017-Jan-11 08:34N 43°30' E 009°45'1918.8
2017-Jan-11 07:34N 43°11' E 009°41'  
2017-Jan-09 02:11N 39°01' E 015°13'1116.8
2017-Jan-09 01:32N 38°51' E 015°19'1716.8
2017-Jan-09 00:32N 38°36' E 015°30'1717.0
2017-Jan-08 23:33N 38°22' E 015°40'1313.4
2017-Jan-08 22:34N 38°09' E 015°36'1716.9
2017-Jan-08 21:33N 37°53' E 015°43'  

Dump ship's entire track history